Time;durP1;ratioP1;P1;durP2;ratioP2;P2;SDS_P1;SDS_P2;PMS_P1;PMS_P2;Temp;Humidity;BMP_temperature;BMP_pressure;BME280_temperature;BME280_humidity;BME280_pressure;Samples;Min_cycle;Max_cycle;Signal;HPM_P1;HPM_P2
2022/06/18 00:01:33;;;;;;;6.80;4.57;;;21.80;98.40;;;;;;5070368;28;20036;-45
2022/06/18 00:04:10;;;;;;;9.93;4.50;;;21.70;98.70;;;;;;5069824;28;20040;-45
2022/06/18 00:06:46;;;;;;;7.03;4.70;;;21.70;98.80;;;;;;5070294;28;20040;-48
2022/06/18 00:09:12;;;;;;;8.75;5.07;;;21.60;99.10;;;;;;5052460;28;20051;-46
2022/06/18 00:14:22;;;;;;;10.45;4.63;;;21.50;98.90;;;;;;5070003;28;20071;-46
2022/06/18 00:16:48;;;;;;;8.10;4.70;;;21.60;99.20;;;;;;5069693;28;20036;-47
2022/06/18 00:19:14;;;;;;;7.85;4.95;;;21.60;99.40;;;;;;5070117;28;20068;-45
2022/06/18 00:21:40;;;;;;;8.18;4.43;;;21.60;99.60;;;;;;5070187;28;20490;-45
2022/06/18 00:24:13;;;;;;;9.65;4.53;;;21.50;99.70;;;;;;5069970;28;20041;-45
2022/06/18 00:26:39;;;;;;;7.47;4.70;;;21.50;99.80;;;;;;5069809;28;20036;-49
2022/06/18 00:29:08;;;;;;;7.28;4.78;;;21.50;99.80;;;;;;5051168;28;20040;-45
2022/06/18 00:31:34;;;;;;;7.78;4.80;;;21.40;99.90;;;;;;5069505;28;20056;-47
2022/06/18 00:34:00;;;;;;;7.90;4.95;;;21.40;99.90;;;;;;5070003;28;20037;-49
2022/06/18 00:36:26;;;;;;;10.32;5.38;;;21.40;99.90;;;;;;5070007;28;20474;-48
2022/06/18 00:38:52;;;;;;;7.57;5.25;;;21.40;99.90;;;;;;5053056;28;20120;-46
2022/06/18 00:41:24;;;;;;;10.30;5.00;;;21.40;99.90;;;;;;5073864;28;20044;-46
2022/06/18 00:44:04;;;;;;;9.45;5.13;;;21.40;99.90;;;;;;5073387;28;20044;-45
2022/06/18 00:46:33;;;;;;;8.82;5.35;;;21.30;99.90;;;;;;5073421;28;20075;-46
2022/06/18 00:49:39;;;;;;;12.65;5.80;;;21.30;99.90;;;;;;5055650;28;20045;-47
2022/06/18 00:52:37;;;;;;;9.18;5.30;;;21.20;99.90;;;;;;5051789;28;20044;-46
2022/06/18 00:55:18;;;;;;;11.07;5.47;;;21.20;99.90;;;;;;5051401;28;20053;-46
2022/06/18 00:58:01;;;;;;;9.93;5.18;;;21.20;99.90;;;;;;5072967;28;20067;-47
2022/06/18 01:00:43;;;;;;;13.20;5.88;;;21.10;99.90;;;;;;5071851;28;20087;-47
2022/06/18 01:03:34;;;;;;;9.60;5.70;;;21.10;99.90;;;;;;5073443;28;20036;-46
2022/06/18 01:06:10;;;;;;;10.85;5.90;;;21.10;99.90;;;;;;5073467;28;20044;-47
2022/06/18 01:08:35;;;;;;;8.80;5.90;;;21.10;99.90;;;;;;5072565;28;20053;-45
2022/06/18 01:11:05;;;;;;;9.90;5.40;;;21.00;99.90;;;;;;5073267;28;20043;-46
2022/06/18 01:13:37;;;;;;;8.60;5.72;;;21.00;99.90;;;;;;5072780;28;20048;-45
2022/06/18 01:16:05;;;;;;;11.70;6.45;;;21.00;99.90;;;;;;5073126;28;20117;-47
2022/06/18 01:18:31;;;;;;;9.45;6.28;;;21.00;99.90;;;;;;5072810;28;20047;-47
2022/06/18 01:21:16;;;;;;;9.93;6.35;;;20.90;99.90;;;;;;5055341;28;20028;-48
2022/06/18 01:24:26;;;;;;;9.15;6.80;;;20.90;99.90;;;;;;5054857;28;20036;-46
2022/06/18 01:26:53;;;;;;;10.77;6.78;;;20.90;99.90;;;;;;5017218;28;20522;-47
2022/06/18 01:29:20;;;;;;;9.55;6.60;;;20.80;99.90;;;;;;5072880;28;20044;-48
2022/06/18 01:31:47;;;;;;;9.57;6.68;;;20.70;99.90;;;;;;5072681;28;20538;-47
2022/06/18 01:34:14;;;;;;;10.07;6.78;;;20.70;99.90;;;;;;5072811;28;20255;-46
2022/06/18 01:36:41;;;;;;;11.10;7.38;;;20.70;99.90;;;;;;5072648;28;20083;-49
2022/06/18 01:39:11;;;;;;;11.60;6.90;;;20.70;99.90;;;;;;5072657;28;20040;-48
2022/06/18 01:41:52;;;;;;;9.65;7.28;;;20.60;99.90;;;;;;5072435;28;20032;-47
2022/06/18 01:44:39;;;;;;;12.93;7.68;;;20.60;99.90;;;;;;5072496;28;20376;-46
2022/06/18 01:47:16;;;;;;;11.85;7.65;;;20.50;99.90;;;;;;5054363;28;20049;-47
2022/06/18 01:49:53;;;;;;;11.30;7.53;;;20.40;99.90;;;;;;5072125;28;20107;-47
2022/06/18 01:52:26;;;;;;;11.93;7.28;;;20.40;99.90;;;;;;5071972;28;20112;-47
2022/06/18 01:54:55;;;;;;;13.75;8.05;;;20.30;99.90;;;;;;5072328;28;20037;-44
2022/06/18 01:57:31;;;;;;;12.45;7.47;;;20.30;99.90;;;;;;5071946;28;20108;-47
2022/06/18 02:00:05;;;;;;;12.48;8.35;;;20.30;99.90;;;;;;5072564;28;20024;-45
2022/06/18 02:02:31;;;;;;;10.82;7.65;;;20.30;99.90;;;;;;5071856;28;20048;-48
2022/06/18 02:04:57;;;;;;;13.25;7.75;;;20.20;99.90;;;;;;5072510;28;20040;-47
2022/06/18 02:07:23;;;;;;;11.48;7.50;;;20.20;99.90;;;;;;5072060;28;20079;-50
2022/06/18 02:10:02;;;;;;;10.52;7.95;;;20.10;99.90;;;;;;5071932;28;20040;-45
2022/06/18 02:12:33;;;;;;;9.20;7.90;;;20.20;99.90;;;;;;5071651;28;20044;-47
2022/06/18 02:15:04;;;;;;;10.38;8.23;;;20.10;99.90;;;;;;5071924;28;20386;-49
2022/06/18 02:17:32;;;;;;;11.48;8.32;;;20.10;99.90;;;;;;5071240;28;20033;-47
2022/06/18 02:20:23;;;;;;;14.93;8.98;;;20.10;99.90;;;;;;5072067;28;20040;-45
2022/06/18 02:22:51;;;;;;;12.93;8.50;;;20.10;99.90;;;;;;5053736;28;20044;-47
2022/06/18 02:25:22;;;;;;;13.20;7.80;;;20.10;99.90;;;;;;5072033;28;20049;-49
2022/06/18 02:27:50;;;;;;;12.38;8.57;;;20.10;99.90;;;;;;5072017;28;20090;-46
2022/06/18 02:30:20;;;;;;;12.65;9.10;;;20.00;99.90;;;;;;5071296;28;20057;-45
2022/06/18 02:33:01;;;;;;;11.98;8.55;;;20.00;99.90;;;;;;5071732;28;20044;-46
2022/06/18 02:35:29;;;;;;;11.95;9.30;;;20.00;99.90;;;;;;5054015;28;20106;-47
2022/06/18 02:37:56;;;;;;;17.00;9.52;;;20.00;99.90;;;;;;5071559;28;20045;-46
2022/06/18 02:40:28;;;;;;;14.93;9.18;;;19.90;99.90;;;;;;5071437;28;20037;-45
2022/06/18 02:42:56;;;;;;;15.27;9.13;;;19.90;99.90;;;;;;5053115;28;20036;-46
2022/06/18 02:45:24;;;;;;;11.93;8.48;;;19.90;99.90;;;;;;5071399;28;20044;-45
2022/06/18 02:47:51;;;;;;;11.68;8.13;;;19.80;99.90;;;;;;5071044;28;20399;-46
2022/06/18 02:50:20;;;;;;;12.23;8.45;;;19.80;99.90;;;;;;5071265;28;20047;-46
2022/06/18 02:52:52;;;;;;;14.27;8.80;;;19.80;99.90;;;;;;5070948;28;20037;-45
2022/06/18 02:55:33;;;;;;;15.90;9.50;;;19.90;99.90;;;;;;5071452;28;20111;-46
2022/06/18 02:58:30;;;;;;;11.98;8.93;;;19.80;99.90;;;;;;5071267;28;20039;-44
2022/06/18 03:01:01;;;;;;;16.42;9.00;;;19.70;99.90;;;;;;5056607;28;20040;-49
2022/06/18 03:03:31;;;;;;;14.30;9.32;;;19.70;99.90;;;;;;5071080;28;20519;-45
2022/06/18 03:05:57;;;;;;;12.10;8.88;;;19.60;99.90;;;;;;5070978;28;20479;-46
2022/06/18 03:08:26;;;;;;;13.10;9.23;;;19.60;99.90;;;;;;5069744;28;20086;-44
2022/06/18 03:13:37;;;;;;;16.58;8.93;;;19.60;99.90;;;;;;5070926;28;20537;-46
2022/06/18 03:16:05;;;;;;;14.15;9.10;;;19.60;99.90;;;;;;5070752;28;20261;-48
2022/06/18 03:18:32;;;;;;;14.32;9.32;;;19.60;99.90;;;;;;5070406;28;20032;-45
2022/06/18 03:21:26;;;;;;;13.57;9.20;;;19.50;99.90;;;;;;5070637;28;20087;-44
2022/06/18 03:23:53;;;;;;;14.63;9.07;;;19.50;99.90;;;;;;5042897;28;20082;-46
2022/06/18 03:26:19;;;;;;;11.85;8.65;;;19.50;99.90;;;;;;5070600;28;20040;-45
2022/06/18 03:28:46;;;;;;;15.77;9.05;;;19.40;99.90;;;;;;5070955;28;20377;-45
2022/06/18 03:31:12;;;;;;;15.10;8.73;;;19.40;99.90;;;;;;5052591;28;20053;-45
2022/06/18 03:33:41;;;;;;;12.68;8.70;;;19.40;99.90;;;;;;5069686;28;20045;-46
2022/06/18 03:36:08;;;;;;;17.70;9.02;;;19.40;99.90;;;;;;5070438;28;20559;-46
2022/06/18 03:38:34;;;;;;;13.20;8.60;;;19.60;99.90;;;;;;5070280;28;20066;-48
2022/06/18 03:41:00;;;;;;;14.85;7.72;;;19.50;99.90;;;;;;5070375;28;20044;-46
2022/06/18 03:43:26;;;;;;;12.90;7.72;;;19.50;99.90;;;;;;5070322;28;20032;-44
2022/06/18 03:45:56;;;;;;;15.10;8.02;;;19.50;99.90;;;;;;5069950;28;20043;-46
2022/06/18 03:48:28;;;;;;;16.05;7.95;;;19.50;99.90;;;;;;5070192;28;20099;-48
2022/06/18 03:50:54;;;;;;;14.57;7.93;;;19.50;99.90;;;;;;5070062;28;20564;-45
2022/06/18 03:53:20;;;;;;;16.58;8.88;;;19.60;99.90;;;;;;5069261;28;20101;-47
2022/06/18 03:55:46;;;;;;;17.88;8.30;;;19.60;99.90;;;;;;5070199;28;20029;-45
2022/06/18 03:58:12;;;;;;;13.93;8.15;;;19.60;99.90;;;;;;5069984;28;20043;-46
2022/06/18 04:00:39;;;;;;;19.85;8.43;;;19.70;99.90;;;;;;5070026;28;20040;-48
2022/06/18 04:03:05;;;;;;;14.40;8.70;;;19.70;99.90;;;;;;5070247;28;20094;-45
2022/06/18 04:05:33;;;;;;;14.82;8.27;;;19.70;99.90;;;;;;5070070;28;20028;-47
2022/06/18 04:07:59;;;;;;;14.63;8.50;;;19.70;99.90;;;;;;5069968;28;20055;-45
2022/06/18 04:10:25;;;;;;;17.05;8.80;;;19.70;99.90;;;;;;5069809;28;20044;-45
2022/06/18 04:12:50;;;;;;;19.65;8.57;;;19.80;99.90;;;;;;5069846;28;20041;-47
2022/06/18 04:15:18;;;;;;;20.13;9.05;;;19.70;99.90;;;;;;5069938;28;20047;-47
2022/06/18 04:17:44;;;;;;;16.13;8.48;;;19.80;99.90;;;;;;5068847;28;20075;-46
2022/06/18 04:20:24;;;;;;;16.73;9.23;;;19.70;99.90;;;;;;5069814;28;20039;-46
2022/06/18 04:22:49;;;;;;;19.85;9.02;;;19.70;99.90;;;;;;5069949;28;20083;-46
2022/06/18 04:25:16;;;;;;;17.60;9.07;;;19.60;99.90;;;;;;5069732;28;20067;-46
2022/06/18 04:27:42;;;;;;;19.60;9.73;;;19.60;99.90;;;;;;5069564;28;20040;-47
2022/06/18 04:30:08;;;;;;;16.92;9.00;;;19.50;99.90;;;;;;5069915;28;20052;-47
2022/06/18 04:32:36;;;;;;;23.30;9.60;;;19.60;99.90;;;;;;5070153;28;20045;-45
2022/06/18 04:35:08;;;;;;;19.35;9.80;;;19.50;99.90;;;;;;5051765;28;20037;-46
2022/06/18 04:37:33;;;;;;;23.63;10.45;;;19.40;99.90;;;;;;5068669;28;20048;-47
2022/06/18 04:39:59;;;;;;;19.13;9.70;;;19.50;99.90;;;;;;5069587;28;20024;-46
2022/06/18 04:42:25;;;;;;;19.08;10.63;;;19.50;99.90;;;;;;5069864;28;20037;-47
2022/06/18 04:44:52;;;;;;;22.33;10.73;;;19.40;99.90;;;;;;5051613;28;20090;-48
2022/06/18 04:47:18;;;;;;;22.23;10.18;;;19.50;99.90;;;;;;5051533;28;20039;-48
2022/06/18 04:49:43;;;;;;;20.33;10.45;;;19.40;99.90;;;;;;5051760;28;20033;-47
2022/06/18 04:52:09;;;;;;;21.08;11.43;;;19.40;99.90;;;;;;5069125;28;20098;-46
2022/06/18 04:54:35;;;;;;;26.77;11.07;;;19.40;99.90;;;;;;5069069;28;20044;-45
2022/06/18 04:57:01;;;;;;;22.70;11.18;;;19.40;99.90;;;;;;5069861;28;20029;-45
2022/06/18 04:59:27;;;;;;;22.23;10.50;;;19.50;99.90;;;;;;5069496;28;20066;-47
2022/06/18 05:02:06;;;;;;;20.92;10.45;;;19.50;99.90;;;;;;5069536;28;20037;-46
2022/06/18 05:04:32;;;;;;;22.58;11.05;;;19.50;99.90;;;;;;5069411;28;20032;-48
2022/06/18 05:06:58;;;;;;;22.88;11.27;;;19.50;99.90;;;;;;5069700;28;20062;-46
2022/06/18 05:09:24;;;;;;;25.15;12.43;;;19.50;99.90;;;;;;5069485;28;20067;-44
2022/06/18 05:11:50;;;;;;;23.77;11.20;;;19.50;99.90;;;;;;5069117;28;20107;-47
2022/06/18 05:14:16;;;;;;;22.35;11.52;;;19.50;99.90;;;;;;5069343;28;20117;-47
2022/06/18 05:16:42;;;;;;;21.05;11.48;;;19.50;99.90;;;;;;5069748;28;20426;-47
2022/06/18 05:19:30;;;;;;;19.50;11.40;;;19.50;99.90;;;;;;5069593;28;20498;-48
2022/06/18 05:21:56;;;;;;;20.10;11.27;;;19.50;99.90;;;;;;5069050;28;20036;-48
2022/06/18 05:24:22;;;;;;;26.50;12.05;;;19.50;99.90;;;;;;5070041;28;20385;-45
2022/06/18 05:26:50;;;;;;;20.80;11.80;;;19.50;99.90;;;;;;5072940;28;20032;-45
2022/06/18 05:29:16;;;;;;;20.40;10.77;;;19.50;99.90;;;;;;5072752;28;20540;-47
2022/06/18 05:31:42;;;;;;;24.95;11.65;;;19.60;99.90;;;;;;5072484;28;20044;-47
2022/06/18 05:34:08;;;;;;;22.20;11.07;;;19.70;99.90;;;;;;5054315;28;20052;-49
2022/06/18 05:36:34;;;;;;;21.13;11.48;;;19.70;99.90;;;;;;5073026;28;20474;-43
2022/06/18 05:39:00;;;;;;;25.33;11.55;;;19.80;99.90;;;;;;5054568;28;20107;-44
2022/06/18 05:41:27;;;;;;;24.70;12.43;;;19.80;99.90;;;;;;5054926;28;20044;-45
2022/06/18 05:43:53;;;;;;;24.10;12.25;;;19.70;99.90;;;;;;5071927;28;20047;-45
2022/06/18 05:46:18;;;;;;;19.92;11.32;;;19.90;99.90;;;;;;5072727;28;20040;-46
2022/06/18 05:48:44;;;;;;;20.23;11.73;;;19.90;99.90;;;;;;5053826;28;20052;-45
2022/06/18 05:51:10;;;;;;;23.15;12.57;;;19.90;99.90;;;;;;5054367;28;20047;-47
2022/06/18 05:53:36;;;;;;;27.17;13.40;;;19.90;99.90;;;;;;5054491;28;20432;-46
2022/06/18 05:56:02;;;;;;;23.10;12.27;;;19.90;99.90;;;;;;5072434;28;20057;-47
2022/06/18 05:58:28;;;;;;;21.75;12.63;;;19.90;99.90;;;;;;5072228;28;20036;-47
2022/06/18 06:00:54;;;;;;;25.48;12.18;;;19.90;99.90;;;;;;5072576;28;20521;-45
2022/06/18 06:03:20;;;;;;;23.77;12.82;;;19.90;99.90;;;;;;5072142;28;20048;-49
2022/06/18 06:05:46;;;;;;;24.75;13.25;;;19.90;99.90;;;;;;5072388;28;20041;-46
2022/06/18 06:08:14;;;;;;;21.88;12.57;;;19.90;99.90;;;;;;5052767;28;20476;-46
2022/06/18 06:13:25;;;;;;;25.83;13.43;;;20.00;99.90;;;;;;5072092;28;20186;-45
2022/06/18 06:15:52;;;;;;;22.85;12.18;;;19.90;99.90;;;;;;5054108;28;20115;-47
2022/06/18 06:18:20;;;;;;;22.52;12.52;;;20.00;99.90;;;;;;5071633;28;20041;-47
2022/06/18 06:20:49;;;;;;;22.20;11.88;;;20.10;99.90;;;;;;5072067;28;20036;-47
2022/06/18 06:23:14;;;;;;;23.20;12.38;;;20.10;99.90;;;;;;5071980;28;20036;-43
2022/06/18 06:25:42;;;;;;;22.63;14.18;;;20.10;99.90;;;;;;5071807;28;20028;-45
2022/06/18 06:28:13;;;;;;;26.45;13.40;;;20.10;99.90;;;;;;5071923;28;20613;-48
2022/06/18 06:30:39;;;;;;;22.38;12.88;;;20.20;99.90;;;;;;5071756;28;20135;-46
2022/06/18 06:33:05;;;;;;;23.88;12.40;;;20.30;99.90;;;;;;5071788;28;20177;-44
2022/06/18 06:35:31;;;;;;;23.50;12.75;;;20.30;99.90;;;;;;5071544;28;20048;-46
2022/06/18 06:37:57;;;;;;;27.05;12.45;;;20.40;99.90;;;;;;5071474;28;20117;-47
2022/06/18 06:40:24;;;;;;;26.08;12.80;;;20.40;99.90;;;;;;5071652;28;20184;-47
2022/06/18 06:42:52;;;;;;;26.20;12.15;;;20.30;99.90;;;;;;5071613;28;20047;-46
2022/06/18 06:45:21;;;;;;;27.73;12.52;;;20.40;99.90;;;;;;5053198;28;20040;-45
2022/06/18 06:47:47;;;;;;;21.35;12.32;;;20.40;99.90;;;;;;5070934;28;20044;-45
2022/06/18 06:50:16;;;;;;;20.85;11.65;;;20.50;99.90;;;;;;5071725;28;20496;-46
2022/06/18 06:52:42;;;;;;;22.58;11.75;;;20.40;99.90;;;;;;5070658;28;20047;-47
2022/06/18 06:58:06;;;;;;;22.35;12.25;;;20.70;99.90;;;;;;5070994;28;20051;-46
2022/06/18 07:00:33;;;;;;;22.80;13.38;;;20.70;99.90;;;;;;5071343;28;20091;-46
2022/06/18 07:02:59;;;;;;;24.40;12.10;;;20.60;99.90;;;;;;5070880;28;20048;-49
2022/06/18 07:05:25;;;;;;;23.25;12.45;;;20.70;99.90;;;;;;5070998;28;20052;-48
2022/06/18 07:07:50;;;;;;;26.38;12.75;;;20.80;99.90;;;;;;5070954;28;20062;-46
2022/06/18 07:10:16;;;;;;;26.48;12.43;;;20.80;99.90;;;;;;5071050;28;20046;-46
2022/06/18 07:12:42;;;;;;;22.83;12.48;;;;;;;;;;5070618;28;20044;-46
2022/06/18 07:15:09;;;;;;;19.17;12.27;;;20.90;99.90;;;;;;5071036;28;20383;-46
2022/06/18 07:17:35;;;;;;;21.30;11.63;;;20.90;99.90;;;;;;5052496;28;20040;-46
2022/06/18 07:20:01;;;;;;;22.75;11.02;;;21.00;99.90;;;;;;5069622;28;20037;-47
2022/06/18 07:22:27;;;;;;;23.83;11.38;;;21.10;99.90;;;;;;5070912;28;20032;-46
2022/06/18 07:24:54;;;;;;;18.40;9.25;;;21.30;99.90;;;;;;5070512;28;20040;-45
2022/06/18 07:27:20;;;;;;;20.30;8.02;;;21.30;99.90;;;;;;5070581;28;20036;-47
2022/06/18 07:29:45;;;;;;;17.00;6.78;;;21.40;99.90;;;;;;5070102;28;20043;-48
2022/06/18 07:32:14;;;;;;;14.27;6.75;;;21.40;99.90;;;;;;5070580;28;20396;-47
2022/06/18 07:34:40;;;;;;;14.07;5.07;;;21.50;99.90;;;;;;5070390;28;20086;-47
2022/06/18 07:37:06;;;;;;;14.48;5.22;;;21.50;99.90;;;;;;5070271;28;20040;-50
2022/06/18 07:39:32;;;;;;;13.30;5.40;;;21.60;99.90;;;;;;5070599;28;20032;-47
2022/06/18 07:41:57;;;;;;;11.43;5.18;;;21.60;99.90;;;;;;5070364;28;20384;-46
2022/06/18 07:44:24;;;;;;;13.10;5.47;;;21.70;99.90;;;;;;5070326;28;20048;-49
2022/06/18 07:46:57;;;;;;;14.65;5.72;;;21.70;99.90;;;;;;5069853;28;20045;-48
2022/06/18 07:49:24;;;;;;;14.68;5.18;;;21.70;99.90;;;;;;5070616;28;20149;-49
2022/06/18 07:51:50;;;;;;;12.05;5.13;;;21.80;99.90;;;;;;5070283;28;20036;-45
2022/06/18 07:54:18;;;;;;;11.20;4.47;;;22.00;99.90;;;;;;5070166;28;20084;-48
2022/06/18 07:56:44;;;;;;;12.35;4.50;;;22.00;99.90;;;;;;5051440;28;20047;-45
2022/06/18 07:59:10;;;;;;;13.88;4.97;;;22.00;99.90;;;;;;5070530;28;20048;-49
2022/06/18 08:01:37;;;;;;;13.65;4.70;;;22.00;99.90;;;;;;5069861;28;20146;-50
2022/06/18 08:04:02;;;;;;;12.38;4.82;;;22.20;99.90;;;;;;5035529;28;20048;-46
2022/06/18 08:06:29;;;;;;;11.52;4.28;;;22.10;99.90;;;;;;5070196;28;20044;-45
2022/06/18 08:08:54;;;;;;;7.82;3.88;;;22.30;99.90;;;;;;5070217;28;20487;-46
2022/06/18 08:11:20;;;;;;;10.93;4.05;;;22.30;99.90;;;;;;5069870;28;20032;-47
2022/06/18 08:13:49;;;;;;;10.43;4.10;;;22.40;99.90;;;;;;5069971;28;20040;-47
2022/06/18 08:16:15;;;;;;;13.55;4.20;;;22.50;99.90;;;;;;5069607;28;20039;-46
2022/06/18 08:18:42;;;;;;;8.75;3.67;;;22.50;99.90;;;;;;5069507;28;20083;-47
2022/06/18 08:21:34;;;;;;;10.35;4.28;;;22.60;99.90;;;;;;5070055;28;20040;-47
2022/06/18 08:24:07;;;;;;;12.05;4.05;;;22.70;99.90;;;;;;5069907;28;20032;-46
2022/06/18 08:26:34;;;;;;;8.38;4.03;;;22.80;99.90;;;;;;5070029;28;20203;-45
2022/06/18 08:29:02;;;;;;;11.30;4.35;;;22.90;99.90;;;;;;5069821;28;20115;-48
2022/06/18 08:31:28;;;;;;;9.32;4.35;;;22.80;99.90;;;;;;5051318;28;20045;-45
2022/06/18 08:33:55;;;;;;;10.75;4.35;;;22.80;99.90;;;;;;5050807;28;20075;-46
2022/06/18 08:36:21;;;;;;;10.35;4.60;;;22.80;99.90;;;;;;5069964;28;20079;-46
2022/06/18 08:38:49;;;;;;;9.90;3.63;;;23.00;99.90;;;;;;5051696;28;20039;-46
2022/06/18 08:41:49;;;;;;;8.27;3.60;;;23.10;99.90;;;;;;5069280;28;20039;-49
2022/06/18 08:44:56;;;;;;;11.23;3.67;;;23.10;99.90;;;;;;5069773;28;20550;-47
2022/06/18 08:47:55;;;;;;;13.95;4.13;;;23.20;99.90;;;;;;5068620;28;20080;-47
2022/06/18 08:50:25;;;;;;;10.45;4.28;;;23.20;99.90;;;;;;5069567;28;20052;-49
2022/06/18 08:52:56;;;;;;;11.05;3.80;;;23.40;99.90;;;;;;5051869;28;20388;-44
2022/06/18 08:55:49;;;;;;;10.95;3.50;;;23.40;99.90;;;;;;5069695;28;20140;-46
2022/06/18 08:58:25;;;;;;;11.88;3.95;;;23.40;99.90;;;;;;5051316;28;20082;-47
2022/06/18 09:00:57;;;;;;;10.30;3.67;;;23.40;99.90;;;;;;5072466;28;20076;-47
2022/06/18 09:03:53;;;;;;;10.15;3.72;;;23.50;99.90;;;;;;5073399;28;20614;-48
2022/06/18 09:06:37;;;;;;;9.32;3.13;;;23.60;99.90;;;;;;5059629;28;20474;-47
2022/06/18 09:09:25;;;;;;;;;;;23.50;99.90;;;;;;5073493;28;20043;-46
2022/06/18 09:12:10;;;;;;;9.25;2.67;;;23.70;99.90;;;;;;5034201;28;20367;-47
2022/06/18 09:14:42;;;;;;;10.45;3.10;;;23.80;99.90;;;;;;5072815;28;20074;-45
2022/06/18 09:17:29;;;;;;;10.10;3.25;;;24.00;99.90;;;;;;5072754;28;20032;-47
2022/06/18 09:20:14;;;;;;;9.70;2.95;;;24.30;99.90;;;;;;5073309;28;20067;-46
2022/06/18 09:22:46;;;;;;;10.60;2.72;;;24.40;99.90;;;;;;5055155;28;20123;-46
2022/06/18 09:25:17;;;;;;;8.38;3.17;;;24.40;99.90;;;;;;5073384;28;20107;-48
2022/06/18 09:28:03;;;;;;;9.00;3.13;;;24.60;99.90;;;;;;5072679;28;20136;-47
2022/06/18 09:30:49;;;;;;;10.38;3.20;;;24.70;99.90;;;;;;5072547;28;20056;-46
2022/06/18 09:33:43;;;;;;;8.57;3.00;;;24.50;99.90;;;;;;5072549;28;20076;-46
2022/06/18 09:36:24;;;;;;;8.70;3.15;;;24.90;99.90;;;;;;5062929;28;20446;-46
2022/06/18 09:38:55;;;;;;;9.52;3.05;;;25.00;99.90;;;;;;5072972;28;20033;-45
2022/06/18 09:41:42;;;;;;;7.57;2.70;;;24.90;99.90;;;;;;5072609;28;20464;-46
2022/06/18 09:44:35;;;;;;;9.77;2.78;;;24.90;99.90;;;;;;5071985;28;20044;-48
2022/06/18 09:47:06;;;;;;;6.28;3.10;;;25.10;99.90;;;;;;5072474;28;20032;-46
2022/06/18 09:49:33;;;;;;;7.28;2.90;;;25.20;99.90;;;;;;5072750;28;20049;-46
2022/06/18 09:52:04;;;;;;;9.52;2.85;;;25.20;99.90;;;;;;5072221;28;20098;-46
2022/06/18 09:54:54;;;;;;;7.72;3.03;;;25.30;99.90;;;;;;5072284;28;20067;-47
2022/06/18 09:57:25;;;;;;;8.57;2.83;;;25.30;99.90;;;;;;5070597;28;20043;-50
2022/06/18 10:00:14;;;;;;;7.93;2.97;;;25.40;99.90;;;;;;5072365;28;20036;-45
2022/06/18 10:03:06;;;;;;;8.98;2.95;;;25.20;99.90;;;;;;5072511;28;20086;-47
2022/06/18 10:08:34;;;;;;;6.97;2.47;;;25.50;99.90;;;;;;5072487;28;20059;-47
2022/06/18 10:11:07;;;;;;;7.70;2.80;;;25.40;99.90;;;;;;5072275;28;20033;-48
2022/06/18 10:13:58;;;;;;;6.60;2.90;;;25.20;99.90;;;;;;5072581;28;20078;-47
2022/06/18 10:16:50;;;;;;;7.32;2.80;;;25.60;99.90;;;;;;5025408;28;20045;-47
2022/06/18 10:19:41;;;;;;;8.85;2.85;;;25.70;99.90;;;;;;5070735;28;20041;-46
2022/06/18 10:22:37;;;;;;;7.68;2.67;;;25.70;99.90;;;;;;5072153;28;20115;-49
2022/06/18 10:25:23;;;;;;;7.72;2.42;;;25.70;99.90;;;;;;5070464;28;20052;-48
2022/06/18 10:28:01;;;;;;;6.60;2.33;;;25.80;99.90;;;;;;5059541;28;20048;-48
2022/06/18 10:30:51;;;;;;;7.85;2.35;;;25.80;99.90;;;;;;5057946;28;20132;-51
2022/06/18 10:33:46;;;;;;;7.18;2.45;;;25.70;99.90;;;;;;5066986;28;20051;-48
2022/06/18 10:36:30;;;;;;;9.57;2.42;;;25.60;99.90;;;;;;5064984;28;20365;-48
2022/06/18 10:39:10;;;;;;;8.77;2.10;;;26.00;99.90;;;;;;5071791;28;20032;-49
2022/06/18 10:41:54;;;;;;;5.53;2.17;;;25.80;99.90;;;;;;5071938;28;20063;-46
2022/06/18 10:44:39;;;;;;;6.65;2.05;;;25.90;99.90;;;;;;5063757;28;20134;-49
2022/06/18 10:47:10;;;;;;;7.80;1.98;;;26.00;99.90;;;;;;5065999;28;20046;-47
2022/06/18 10:49:35;;;;;;;5.35;1.90;;;26.10;99.90;;;;;;5067035;28;20553;-48
2022/06/18 10:52:02;;;;;;;6.60;1.95;;;26.10;99.90;;;;;;5069348;28;20032;-49
2022/06/18 10:54:32;;;;;;;5.78;1.85;;;26.10;99.90;;;;;;5064240;28;20041;-48
2022/06/18 10:56:58;;;;;;;5.55;1.45;;;26.20;99.90;;;;;;5062832;28;20083;-47
2022/06/18 10:59:34;;;;;;;6.63;1.80;;;26.10;99.90;;;;;;5069726;28;20071;-49
2022/06/18 11:02:11;;;;;;;4.68;1.60;;;26.20;99.90;;;;;;5068259;28;20126;-51
2022/06/18 11:04:38;;;;;;;6.20;1.60;;;26.30;99.90;;;;;;5066000;28;20052;-50
2022/06/18 11:07:08;;;;;;;6.53;1.80;;;26.40;99.90;;;;;;5061675;28;20154;-49
2022/06/18 11:09:58;;;;;;;6.90;1.70;;;26.50;99.90;;;;;;5063037;28;20511;-48
2022/06/18 11:12:34;;;;;;;4.60;1.40;;;26.50;99.90;;;;;;5043837;28;20052;-46
2022/06/18 11:15:20;;;;;;;5.28;1.65;;;26.70;99.90;;;;;;5047492;28;20074;-48
2022/06/18 11:17:46;;;;;;;5.50;1.42;;;26.70;99.90;;;;;;5058673;28;20064;-49
2022/06/18 11:20:23;;;;;;;5.35;1.75;;;26.70;99.90;;;;;;5067440;28;20109;-50
2022/06/18 11:22:55;;;;;;;4.88;1.45;;;26.50;99.90;;;;;;5064979;28;20052;-47
2022/06/18 11:25:38;;;;;;;5.10;1.52;;;27.00;99.90;;;;;;5047720;28;20110;-49
2022/06/18 11:28:19;;;;;;;5.60;1.70;;;27.00;99.90;;;;;;5063342;28;21591;-49
2022/06/18 11:30:47;;;;;;;3.85;1.30;;;27.10;99.90;;;;;;5067861;28;20124;-49
2022/06/18 11:33:53;;;;;;;6.20;1.30;;;27.10;99.90;;;;;;5070059;28;21697;-48
2022/06/18 11:36:30;;;;;;;4.00;1.15;;;27.20;99.90;;;;;;5069293;28;20033;-47
2022/06/18 11:38:58;;;;;;;5.07;1.40;;;27.20;99.90;;;;;;5048068;28;20479;-47
2022/06/18 11:41:33;;;;;;;5.53;1.35;;;27.20;99.90;;;;;;5064367;28;20032;-49
2022/06/18 11:44:20;;;;;;;4.43;1.50;;;27.30;99.90;;;;;;5066200;28;20036;-49
2022/06/18 11:46:52;;;;;;;5.85;1.13;;;27.50;99.90;;;;;;5069295;28;20062;-46
2022/06/18 11:49:55;;;;;;;6.40;1.55;;;27.30;99.90;;;;;;5069123;28;20056;-48
2022/06/18 11:52:38;;;;;;;4.32;1.30;;;27.40;99.90;;;;;;5004170;28;20050;-53
2022/06/18 11:55:24;;;;;;;4.90;1.30;;;27.50;99.90;;;;;;5063702;28;20055;-49
2022/06/18 11:58:18;;;;;;;4.90;1.20;;;27.50;99.90;;;;;;5051905;28;20044;-49
2022/06/18 12:01:08;;;;;;;4.45;1.38;;;27.70;99.90;;;;;;5069898;28;20032;-50
2022/06/18 12:03:43;;;;;;;4.20;1.40;;;27.60;99.90;;;;;;5068876;28;20037;-52
2022/06/18 12:06:42;;;;;;;4.57;1.40;;;27.60;99.80;;;;;;5069186;28;20136;-46
2022/06/18 12:09:13;;;;;;;5.32;1.65;;;28.00;99.90;;;;;;5070771;28;20101;-51
2022/06/18 12:11:56;;;;;;;5.05;1.50;;;28.00;99.90;;;;;;5070230;28;20036;-52
2022/06/18 12:14:33;;;;;;;;;;;27.80;99.80;;;;;;5071164;28;20447;-48
2022/06/18 12:17:12;;;;;;;5.10;1.40;;;27.90;99.90;;;;;;5070261;28;19924;-50
2022/06/18 12:19:44;;;;;;;5.20;1.48;;;28.10;99.90;;;;;;5070322;28;20373;-48
2022/06/18 12:22:19;;;;;;;5.30;1.60;;;28.00;99.90;;;;;;5070495;28;20032;-50
2022/06/18 12:25:22;;;;;;;7.45;1.55;;;28.30;99.90;;;;;;5070268;28;20122;-49
2022/06/18 12:27:56;;;;;;;7.20;1.45;;;28.40;99.90;;;;;;5070529;28;20037;-48
2022/06/18 12:30:34;;;;;;;7.32;1.48;;;28.50;99.90;;;;;;5069854;28;20110;-48
2022/06/18 12:33:09;;;;;;;5.90;1.70;;;28.50;99.90;;;;;;5070202;28;20044;-49
2022/06/18 12:35:49;;;;;;;7.38;1.67;;;28.70;99.90;;;;;;5074414;28;20029;-49
2022/06/18 12:38:43;;;;;;;5.32;1.70;;;28.50;99.20;;;;;;5074329;28;20094;-49
2022/06/18 12:41:38;;;;;;;8.85;1.80;;;28.90;99.80;;;;;;5060512;28;20087;-51
2022/06/18 12:44:22;;;;;;;5.32;1.70;;;28.70;99.90;;;;;;5056057;28;20055;-48
2022/06/18 12:47:00;;;;;;;5.65;2.00;;;28.90;99.10;;;;;;5074220;28;20058;-49
2022/06/18 12:49:53;;;;;;;4.93;1.45;;;28.60;98.90;;;;;;5073691;28;20127;-48
2022/06/18 12:52:48;;;;;;;3.97;1.37;;;29.00;99.70;;;;;;5073091;28;20078;-50
2022/06/18 12:55:17;;;;;;;7.43;1.58;;;29.00;99.90;;;;;;5073990;28;20048;-51
2022/06/18 12:57:43;;;;;;;4.85;1.60;;;28.90;99.70;;;;;;5074122;28;20056;-52
2022/06/18 13:00:18;;;;;;;5.68;1.50;;;29.10;99.90;;;;;;5074161;28;20036;-49
2022/06/18 13:03:05;;;;;;;3.45;1.30;;;29.10;99.90;;;;;;5073871;28;20115;-51
2022/06/18 13:05:47;;;;;;;7.22;1.58;;;29.20;99.90;;;;;;5073821;28;20090;-48
2022/06/18 13:08:28;;;;;;;4.47;1.33;;;28.90;99.50;;;;;;5071536;28;20038;-51
2022/06/18 13:10:58;;;;;;;6.00;1.80;;;28.70;99.90;;;;;;5073578;28;20048;-50
2022/06/18 13:13:51;;;;;;;4.85;1.35;;;28.50;99.90;;;;;;5073857;28;20067;-51
2022/06/18 13:16:31;;;;;;;4.80;1.30;;;28.70;99.90;;;;;;5073199;28;20040;-49
2022/06/18 13:19:11;;;;;;;5.32;1.40;;;28.70;99.60;;;;;;5073349;28;20071;-50
2022/06/18 13:21:37;;;;;;;5.93;1.27;;;28.80;99.40;;;;;;5073314;28;20032;-46
2022/06/18 13:30:23;;;;;;;4.13;1.20;;;29.00;99.40;;;;;;5072239;28;20046;-50
2022/06/18 13:32:54;;;;;;;4.03;1.35;;;28.60;99.60;;;;;;5062198;28;20131;-51